This is the latest recevied weather packets stored in our database for station/object N0HEQ. If no packets are shown the sender has not sent any weather packets the latest 10 day(s).
| Time | Temp. | Humidity | Pressure | Rain* | Wind** | Luminosity | Snow |
|---|---|---|---|---|---|---|---|
| 1777954398 | 8.33° C | 93% | 1015.5 hPa | 0 mm | - | 0 W/m² | - |
| 1777954095 | 8.33° C | 92% | 1015.5 hPa | 0 mm | - | 0 W/m² | - |
| 1777953793 | 8.33° C | 92% | 1015.3 hPa | 0 mm | - | 0 W/m² | - |
| 1777953489 | 8.33° C | 91% | 1015.4 hPa | 0 mm | - | 0 W/m² | - |
| 1777953185 | 8.33° C | 91% | 1015.3 hPa | 0 mm | - | 0 W/m² | - |
| 1777952883 | 8.89° C | 90% | 1015 hPa | 0 mm | - | 0 W/m² | - |
| 1777952579 | 8.89° C | 89% | 1015.2 hPa | 0 mm | - | 0 W/m² | - |
| 1777952276 | 9.44° C | 87% | 1015 hPa | 0 mm | - | 0 W/m² | - |
| 1777951973 | 9.44° C | 85% | 1015.2 hPa | 0 mm | - | 0 W/m² | - |
| 1777951671 | 10° C | 81% | 1015.2 hPa | 0 mm | - | 0 W/m² | - |
| 1777951367 | 11.11° C | 76% | 1015 hPa | 0 mm | - | 0 W/m² | - |
| 1777951065 | 11.67° C | 72% | 1014.7 hPa | 0 mm | - | 0 W/m² | - |
| 1777950761 | 11.67° C | 68% | 1014.4 hPa | 0 mm | - | 0 W/m² | - |
| 1777950458 | 12.22° C | 62% | 1014.4 hPa | 0 mm | - | 0 W/m² | - |
| 1777950154 | 12.22° C | 59% | 1014.1 hPa | 0 mm | - | 0 W/m² | - |
| 1777949850 | 12.22° C | 58% | 1013.6 hPa | 0 mm | - | 0 W/m² | - |
| 1777949548 | 11.67° C | 60% | 1014 hPa | 0 mm | - | 0 W/m² | - |
| 1777949246 | 11.67° C | 60% | 1014 hPa | 0 mm | - | 0 W/m² | - |
| 1777948943 | 11.67° C | 61% | 1013.6 hPa | 0 mm | - | 0 W/m² | - |
| 1777948640 | 11.67° C | 62% | 1013.6 hPa | 0 mm | - | 0 W/m² | - |
| 1777948337 | 11.67° C | 62% | 1013.3 hPa | 0 mm | - | 0 W/m² | - |
| 1777948035 | 11.67° C | 61% | 1013.5 hPa | 0 mm | - | 0 W/m² | - |
| 1777947731 | 11.67° C | 61% | 1013.2 hPa | 0 mm | - | 0 W/m² | - |
| 1777947428 | 11.67° C | 61% | 1013.4 hPa | 0 mm | - | 0 W/m² | - |
| 1777947125 | 11.67° C | 61% | 1013.4 hPa | 0 mm | - | 0 W/m² | - |
* Rain latest hour (hover to see other rain measurements)
** Current wind speed in m/s (hover to see current wind gust speed)